Tiempo atmosférico en la estación meteorológica de Valleseco, Las Palmas (900 m.)



Fecha
DESCASC
Temp. máxima en grados centígrados (hora)
DESCASC
Temp. mínima en grados centígrados (hora)
DESCASC
Temp. media en grados centígrados
DESCASC
Racha de viento máxima en m/sg (hora)
DESCASC
Velocidad máxima media en intervalos de 10 minutos(hora)
DESCASC
Precipitaciones diarias en mm
DESCASC
Precipitaciones de 00:00 a 06:00 en mm
DESCASC
Precipitaciones de 06:00 a 12:00 en mm
DESCASC
Precipitaciones de 12:00 a 18:00 en mm
DESCASC
Precipitaciones de 18:00 a 24:00 en mm
DESCASC
26-03-2020 14 (11:10) 7.6 (06:30) 10.8 5 (16:00) 3.06 (16:10) 0.4 0.2 0 0.2 0
25-03-2020 15.2 (12:00) 7.8 (23:10) 11.5 5.56 (13:50) 3.06 (12:30) 0 0 0 0 0
24-03-2020 14.7 (13:50) 8.7 (06:30) 11.7 11.11 (00:10) 6.67 (00:10) 3.4 1 2 0 0.4
23-03-2020 10.8 (14:20) 6.8 (05:30) 8.8 18.61 (06:10) 11.11 (06:10) 15.8 5.2 5.6 1.2 3.8
22-03-2020 17.3 (15:00) 7.2 (07:20) 12.2 16.11 (23:40) 10 (23:40) 4 0.2 1.6 0 2.2
21-03-2020 12.6 (16:30) 7.4 (00:00) 10 9.72 (22:50) 5.56 (22:00) 3 0.2 1.2 0 1.6
20-03-2020 15.7 (16:10) 9.5 (00:00) 12.6 11.67 (07:30) 6.11 (07:30) 7.8 0.2 0.4 0.6 6.6
19-03-2020 15.3 (14:00) 9.1 (00:00) 12.2 16.94 (02:10) 8.06 (02:10) 6.2 1.6 2 0.2 2.4
18-03-2020 13.9 (14:00) 7.6 (00:00) 10.7 14.17 (20:30) 8.89 (20:30) 6 4.2 0.8 0 1
17-03-2020 11 (14:50) 7.1 (00:00) 9 10 (23:50) 5.28 (21:10) 14.2 5.2 4.2 0.8 4
16-03-2020 13.6 (13:40) 8.1 (00:00) 10.9 10.28 (20:00) 5 (01:10) 5.6 0.6 1 0.2 3.8
15-03-2020 14.8 (14:40) 8.7 (00:00) 11.8 10.28 (22:40) 5.83 (16:50) 5.6 1 0.6 3.2 0.8
14-03-2020 14.4 (16:30) 8.7 (00:00) 11.5 6.11 (19:50) 3.33 (19:50) 0.2 0.2 0 0 0
13-03-2020 19.6 (14:20) 8.7 (07:10) 14.2 6.11 (11:30) 4.44 (11:50) 0 0 0 0 0
12-03-2020 25.6 (14:50) 16.2 (00:00) 20.9 10.28 (12:40) 6.67 (09:30) 0 0 0 0 0
11-03-2020 25.6 (14:20) 15.7 (00:00) 20.7 8.89 (12:30) 5.56 (11:40) 0 0 0 0 0
10-03-2020 24.7 (10:20) 15.2 (00:00) 20 6.94 (06:40) 5.28 (07:00) 0 0 0 0 0
09-03-2020 23.5 (14:10) 12.7 (00:00) 18.1 13.61 (10:50) 8.33 (11:00) 0 0 0 0 0
08-03-2020 21.9 (12:20) 9 (00:00) 15.4 10.83 (11:50) 7.5 (12:00) 0 0 0 0 0
07-03-2020 16.4 (14:40) 8.8 (00:00) 12.6 6.67 (13:30) 3.06 (14:00) 0.2 0 0.2 0 0
06-03-2020 11.9 (03:50) 9 (00:00) 10.4 8.33 (07:10) 4.72 (07:10) 10.2 6.4 3.8 0 0
05-03-2020 21.7 (11:20) 10.8 (00:00) 16.3 5.28 (23:50) 3.61 (01:30) 0.4 0 0 0 0.4
04-03-2020 24.7 (12:20) 14.1 (00:00) 19.4 8.89 (02:40) 7.5 (02:40) 0 0 0 0 0
03-03-2020 22.3 (14:00) 9.6 (00:00) 15.9 8.06 (23:20) 6.39 (23:20) 0 0 0 0 0
02-03-2020 17.8 (10:50) 9.3 (00:00) 13.5 6.67 (06:30) 4.17 (23:30) 0 0 0 0 0
01-03-2020 22.3 (15:10) 10.1 (00:00) 16.2 5.56 (14:30) 3.06 (14:30) 0 0 0 0 0
29-02-2020 21.5 (11:20) 9.1 (00:00) 15.3 5.28 (15:40) 3.33 (13:10) 0 0 0 0 0
28-02-2020 19.4 (16:20) 9 (00:00) 14.2 5.83 (20:20) 4.17 (20:20) 0 0 0 0 0

Gráficas

Temp. máximas Temp. mínimas Temp. medias Precipitaciones Rachas de viento máximas Velocidades máximas media en intervalos de 10 minutos

Datos horarios

Fecha y hora oficial Temperatura (ºC) Velocidad del viento (km/h) Dirección del viento Racha (km/h) Dirección de racha Precipitación (mm) Presión (hPa) Tendencia (hPa) Humedad (%)
2020-03-28 23:00:00 9.8 0 Calma 6 Nordeste 0 -- -- 69
2020-03-28 22:00:00 9.3 2 Nordeste 5 Nordeste 0 -- -- 74
2020-03-28 21:00:00 9.4 0 Calma 3 Noroeste 0 -- -- 88
2020-03-28 20:00:00 9.7 0 Calma 5 Noroeste 0 -- -- 95
2020-03-28 19:00:00 11.3 3 Noroeste 9 Norte 0 -- -- 88
2020-03-28 18:00:00 13.2 3 Noroeste 10 Norte 0 -- -- 79
2020-03-28 17:00:00 12.7 5 Norte 15 Norte 0 -- -- 82
2020-03-28 16:00:00 12.7 9 Norte 21 Nordeste 0 -- -- 84
2020-03-28 15:00:00 13.2 11 Norte 21 Norte 0 -- -- 81
2020-03-28 14:00:00 14.2 10 Norte 21 Noroeste 0 -- -- 75
2020-03-28 13:00:00 15.5 11 Norte 21 Norte 0 -- -- 69
2020-03-28 12:00:00 14.9 9 Norte 17 Norte 0 -- -- 76
2020-03-28 11:00:00 14.5 8 Norte 18 Norte 0 -- -- 72
2020-03-28 10:00:00 13.7 8 Noroeste 16 Noroeste 0 -- -- 81
2020-03-28 09:00:00 11.9 8 Oeste 15 Oeste 0 -- -- 80
2020-03-28 08:00:00 8.8 9 Noroeste 21 Oeste 0.2 -- -- 97
2020-03-28 07:00:00 8.1 13 Oeste 24 Oeste 0 -- -- 98
2020-03-28 06:00:00 8.1 14 Oeste 23 Oeste 0 -- -- 100
2020-03-28 05:00:00 8.3 13 Oeste 25 Oeste 0 -- -- 100
2020-03-28 04:00:00 8 17 Oeste 25 Oeste 0 -- -- 100
2020-03-28 03:00:00 8.7 14 Oeste 23 Oeste 0 -- -- 100
2020-03-28 02:00:00 8.8 16 Oeste 27 Oeste 0 -- -- 100
2020-03-28 01:00:00 9.1 17 Oeste 28 Noroeste 1.4 -- -- 100
2020-03-28 00:00:00 10 18 Noroeste 32 Noroeste 5.8 -- -- 100
2020-03-27 23:00:00 10 9 Norte 17 Norte 2.6 -- -- 99
2020-03-27 22:00:00 10.2 3 Norte 6 Nordeste 2.8 -- -- 98
2020-03-27 21:00:00 10.4 3 Norte 5 Sudeste 0.2 -- -- 98
2020-03-27 20:00:00 10.1 2 Sudeste 6 Este 0.2 -- -- 97
2020-03-27 19:00:00 10.7 4 Este 14 Este 1.2 -- -- 97
2020-03-27 18:00:00 11.3 10 Sudeste 18 Sudeste 0 -- -- 94
2020-03-27 17:00:00 12.2 9 Este 15 Este 0 -- -- 90
2020-03-27 16:00:00 15.7 6 Noroeste 14 Norte 0 -- -- 75
2020-03-27 15:00:00 16.7 11 Noroeste 22 Noroeste 0 -- -- 70
2020-03-27 14:00:00 16 12 Noroeste 22 Noroeste 0 -- -- 79
2020-03-27 13:00:00 15.3 10 Noroeste 26 Noroeste 0 -- -- 79
2020-03-27 12:00:00 14.6 6 Noroeste 19 Noroeste 0 -- -- 84
2020-03-27 11:00:00 12.5 10 Oeste 23 Oeste 0.2 -- -- 98
2020-03-27 10:00:00 10 9 Noroeste 20 Noroeste 1.2 -- -- 99
2020-03-27 09:00:00 10.2 9 Noroeste 16 Oeste 0 -- -- 99
2020-03-27 08:00:00 9 5 Oeste 19 Oeste 0.4 -- -- 99
2020-03-27 07:00:00 8.5 13 Oeste 23 Oeste 0 -- -- 98
2020-03-27 06:00:00 8.3 15 Oeste 24 Oeste 0 -- -- 98
2020-03-27 05:00:00 8.4 12 Oeste 21 Oeste 0.8 -- -- 98
2020-03-27 04:00:00 8 5 Sudoeste 15 Oeste 0.2 -- -- 95
2020-03-27 03:00:00 8.8 10 Oeste 15 Oeste 0 -- -- 80
2020-03-27 02:00:00 8.1 6 Oeste 13 Oeste 0 -- -- 85
2020-03-27 01:00:00 8.3 10 Oeste 15 Oeste 0 -- -- 90
2020-03-27 00:00:00 8.1 9 Oeste 14 Oeste 0 -- -- 94
2020-03-26 23:00:00 8.4 6 Noroeste 13 Oeste 0 -- -- 95
2020-03-26 22:00:00 8.7 8 Noroeste 16 Oeste 0 -- -- 97
2020-03-26 21:00:00 9.6 6 Oeste 11 Noroeste 0 -- -- 98
2020-03-26 20:00:00 9.8 4 Noroeste 11 Noroeste 0 -- -- 97
2020-03-26 19:00:00 10.1 4 Norte 10 Norte 0 -- -- 91
2020-03-26 18:00:00 11.2 4 Noroeste 10 Noroeste 0 -- -- 87
2020-03-26 17:00:00 11.4 5 Norte 17 Norte 0 -- -- 89
2020-03-26 16:00:00 10.7 8 Norte 18 Noroeste 0 -- -- 91
2020-03-26 15:00:00 11.5 6 Norte 13 Norte 0.2 -- -- 92
2020-03-26 14:00:00 12.1 4 Norte 13 Norte 0 -- -- 86
2020-03-26 13:00:00 12.3 7 Noroeste 16 Noroeste 0 -- -- 86
2020-03-26 12:00:00 12.7 8 Norte 16 Norte 0 -- -- 81
2020-03-26 11:00:00 13.3 8 Norte 15 Norte 0 -- -- 80
2020-03-26 10:00:00 11.3 4 Noroeste 10 Noroeste 0 -- -- 82
2020-03-26 09:00:00 13.7 3 Norte 6 Noroeste 0 -- -- 64
2020-03-26 08:00:00 10 3 Sudeste 6 Sudeste 0 -- -- 81
2020-03-26 07:00:00 7.9 3 Sudeste 9 Sudeste 0 -- -- 91
2020-03-26 06:00:00 8.6 4 Sur 7 Este 0 -- -- 83
2020-03-26 05:00:00 8.5 5 Sur 11 Sudeste 0 -- -- 86
2020-03-26 04:00:00 8.5 5 Sudeste 10 Sudeste 0 -- -- 92
2020-03-26 03:00:00 8.6 5 Sudeste 8 Sur 0 -- -- 97
2020-03-26 02:00:00 8.7 4 Sudeste 8 Sudeste 0.2 -- -- 96
2020-03-26 01:00:00 8.8 5 Sudeste 13 Sudeste 0 -- -- 91
2020-03-26 00:00:00 9 0 Calma 10 Sur 0 -- -- 89
2020-03-25 23:00:00 8 6 Sur 8 Sur 0 -- -- 98
2020-03-25 22:00:00 9 2 Norte 12 Norte 0 -- -- 98
2020-03-25 21:00:00 9.5 4 Noroeste 9 Oeste 0 -- -- 98
2020-03-25 20:00:00 9.5 2 Noroeste 9 Noroeste 0 -- -- 96
2020-03-25 19:00:00 11 6 Noroeste 15 Noroeste 0 -- -- 87
2020-03-25 18:00:00 12.6 5 Noroeste 15 Noroeste 0 -- -- 79
2020-03-25 17:00:00 12.1 7 Norte 15 Noroeste 0 -- -- 82
2020-03-25 16:00:00 12.6 7 Norte 17 Norte 0 -- -- 78
2020-03-25 15:00:00 13 7 Norte 17 Norte 0 -- -- 74
2020-03-25 14:00:00 12.7 9 Noroeste 20 Noroeste 0 -- -- 79
2020-03-25 13:00:00 14.2 11 Norte 20 Noroeste 0 -- -- 70
2020-03-25 12:00:00 15.2 11 Norte 18 Noroeste 0 -- -- 70
2020-03-25 11:00:00 14.4 9 Norte 15 Norte 0 -- -- 73
2020-03-25 10:00:00 12.6 7 Noroeste 13 Noroeste 0 -- -- 76
2020-03-25 09:00:00 11.3 3 Oeste 6 Oeste 0 -- -- 82
2020-03-25 08:00:00 9.5 4 Sudoeste 8 Noroeste 0 -- -- 94
2020-03-25 07:00:00 8.9 4 Norte 12 Nordeste 0 -- -- 99
2020-03-25 06:00:00 8.5 4 Oeste 9 Oeste 0 -- -- 100
2020-03-25 05:00:00 9 6 Oeste 11 Oeste 0 -- -- 100
2020-03-25 04:00:00 9.3 7 Noroeste 15 Oeste 0 -- -- 100
2020-03-25 03:00:00 9.3 8 Oeste 15 Noroeste 0 -- -- 100
2020-03-25 02:00:00 9.4 10 Oeste 14 Noroeste 0 -- -- 100
2020-03-25 01:00:00 9.8 6 Noroeste 17 Noroeste 0 -- -- 100
2020-03-25 00:00:00 9.5 10 Noroeste 19 Oeste 0 -- -- 100
2020-03-24 23:00:00 9.5 9 Noroeste 21 Oeste 0 -- -- 100
2020-03-24 22:00:00 9.7 13 Noroeste 26 Noroeste 0 -- -- 100
2020-03-24 21:00:00 10 16 Noroeste 29 Norte 0.2 -- -- 100
2020-03-24 20:00:00 10.1 14 Noroeste 27 Norte 0 -- -- 99
2020-03-24 19:00:00 10.1 17 Norte 27 Norte 0.2 -- -- 98
2020-03-24 18:00:00 10.7 12 Noroeste 21 Noroeste 0 -- -- 95
2020-03-24 17:00:00 11.3 13 Noroeste 24 Noroeste 0 -- -- 94
2020-03-24 16:00:00 11.9 14 Noroeste 26 Noroeste 0 -- -- 89
2020-03-24 15:00:00 12.1 15 Noroeste 31 Noroeste 0 -- -- 82
2020-03-24 14:00:00 14.4 15 Noroeste 31 Noroeste 0 -- -- 77
2020-03-24 13:00:00 13.9 18 Noroeste 33 Oeste 0 -- -- 85
2020-03-24 12:00:00 11.7 21 Oeste 35 Noroeste 0 -- -- 97
2020-03-24 11:00:00 11.6 17 Noroeste 35 Noroeste 0 -- -- 100
2020-03-24 10:00:00 9.8 20 Norte 33 Noroeste 1.4 -- -- 100
2020-03-24 09:00:00 10.4 17 Noroeste 35 Noroeste 0.2 -- -- 100
2020-03-24 08:00:00 9.5 18 Noroeste 39 Noroeste 0.4 -- -- 100
2020-03-24 07:00:00 9.1 17 Noroeste 30 Noroeste 0 -- -- 100
2020-03-24 06:00:00 9.3 23 Noroeste 39 Noroeste 1 -- -- 100
2020-03-24 05:00:00 9.7 21 Noroeste 38 Noroeste 0 -- -- 100
2020-03-24 04:00:00 9.5 19 Noroeste 37 Noroeste 0 -- -- 100
2020-03-24 03:00:00 9.8 19 Noroeste 35 Oeste 0 -- -- 100
2020-03-24 02:00:00 9.7 17 Noroeste 38 Oeste 0 -- -- 100
2020-03-24 01:00:00 9.6 17 Noroeste 40 Norte 0 -- -- 100
2020-03-24 00:00:00 9.7 28 Noroeste 50 Noroeste 2.2 -- -- 100
2020-03-23 23:00:00 9.6 20 Noroeste 39 Noroeste 0 -- -- 100
2020-03-23 22:00:00 9.5 20 Noroeste 51 Norte 1.2 -- -- 100
2020-03-23 21:00:00 9.6 19 Noroeste 43 Noroeste 0 -- -- 100
2020-03-23 20:00:00 9.3 21 Noroeste 38 Norte 0.4 -- -- 100
2020-03-23 19:00:00 9 22 Noroeste 41 Norte 0 -- -- 99
2020-03-23 18:00:00 9.6 17 Noroeste 35 Noroeste 0 -- -- 99
2020-03-23 17:00:00 9.6 22 Norte 37 Noroeste 0 -- -- 99
2020-03-23 16:00:00 10 23 Norte 45 Norte 0 -- -- 98
2020-03-23 15:00:00 9.6 24 Norte 44 Norte 1.2 -- -- 100
2020-03-23 14:00:00 10.5 26 Norte 48 Noroeste 0 -- -- 98
2020-03-23 13:00:00 10.7 21 Norte 42 Noroeste 0 -- -- 99
2020-03-23 12:00:00 8.9 21 Noroeste 50 Noroeste 1.6 -- -- 100
2020-03-23 11:00:00 8.9 31 Norte 52 Norte 1 -- -- 100
2020-03-23 10:00:00 8 29 Norte 54 Noroeste 0.4 -- -- 100
2020-03-23 09:00:00 7.7 22 Noroeste 51 Noroeste 0.2 -- -- 100
2020-03-23 08:00:00 7.4 35 Noroeste 66 Norte 2.2 -- -- 99
2020-03-23 07:00:00 7.5 35 Norte 67 Noroeste 0.2 -- -- 100
2020-03-23 06:00:00 7.2 38 Noroeste 59 Noroeste 4.6 -- -- 99
2020-03-23 05:00:00 7.3 33 Oeste 61 Oeste 0.2 -- -- 97
2020-03-23 04:00:00 7.7 33 Noroeste 62 Oeste 0.2 -- -- 94
2020-03-23 03:00:00 8.1 36 Oeste 54 Oeste 0 -- -- 91
2020-03-23 02:00:00 7.8 27 Noroeste 50 Oeste 0 -- -- 95
2020-03-23 01:00:00 8.5 24 Noroeste 54 Oeste 0.2 -- -- 97
2020-03-23 00:00:00 8.4 30 Oeste 58 Sudoeste 0 -- -- 95
2020-03-22 23:00:00 8.5 32 Oeste 47 Oeste 0 -- -- 95
2020-03-22 22:00:00 8.7 27 Oeste 46 Oeste 0 -- -- 91
2020-03-22 21:00:00 8.4 21 Oeste 40 Oeste 0 -- -- 92
2020-03-22 20:00:00 8.3 23 Oeste 41 Noroeste 1 -- -- 99
2020-03-22 19:00:00 9.5 21 Noroeste 33 Noroeste 1.2 -- -- 97
2020-03-22 18:00:00 11.9 14 Noroeste 26 Oeste 0 -- -- 76
2020-03-22 17:00:00 13.3 10 Noroeste 27 Noroeste 0 -- -- 68
2020-03-22 16:00:00 16.2 15 Noroeste 33 Oeste 0 -- -- 53
2020-03-22 15:00:00 17.3 9 Noroeste 23 Oeste 0 -- -- 52
2020-03-22 14:00:00 14.8 13 Noroeste 25 Noroeste 0 -- -- 68
2020-03-22 13:00:00 15.1 12 Oeste 24 Oeste 0 -- -- 64
2020-03-22 12:00:00 12.3 16 Noroeste 41 Oeste 0 -- -- 77
2020-03-22 11:00:00 11.1 18 Noroeste 35 Oeste 0 -- -- 89
2020-03-22 10:00:00 9.2 18 Noroeste 37 Noroeste 0.6 -- -- 99
2020-03-22 09:00:00 8.2 13 Noroeste 28 Noroeste 0.2 -- -- 98
2020-03-22 08:00:00 7.9 21 Oeste 36 Oeste 0 -- -- 100
2020-03-22 07:00:00 7.7 21 Oeste 33 Oeste 0.8 -- -- 100
2020-03-22 06:00:00 7.9 17 Noroeste 32 Oeste 0 -- -- 100
2020-03-22 05:00:00 8.3 15 Noroeste 30 Noroeste 0.2 -- -- 100
2020-03-22 04:00:00 8 14 Noroeste 31 Norte 0 -- -- 99
2020-03-22 03:00:00 8.1 14 Noroeste 30 Oeste 0 -- -- 98
2020-03-22 02:00:00 8 19 Oeste 31 Oeste 0 -- -- 97
2020-03-22 01:00:00 7.5 17 Oeste 25 Oeste 0 -- -- 99
2020-03-22 00:00:00 8 14 Noroeste 30 Noroeste 0 -- -- 100
2020-03-21 23:00:00 8.7 20 Noroeste 35 Noroeste 0.2 -- -- 100
2020-03-21 22:00:00 8.8 20 Noroeste 33 Norte 0.6 -- -- 99
2020-03-21 21:00:00 8.3 14 Oeste 26 Oeste 0.4 -- -- 99
2020-03-21 20:00:00 8.3 14 Noroeste 23 Oeste 0.4 -- -- 98
2020-03-21 19:00:00 9.2 7 Noroeste 18 Noroeste 0 -- -- 86
2020-03-21 18:00:00 11.2 11 Noroeste 25 Noroeste 0 -- -- 76
2020-03-21 17:00:00 12.2 12 Noroeste 21 Noroeste 0 -- -- 73
2020-03-21 16:00:00 10.6 10 Norte 23 Norte 0 -- -- 88
2020-03-21 15:00:00 12 8 Noroeste 20 Noroeste 0 -- -- 78
2020-03-21 14:00:00 11.1 10 Noroeste 23 Norte 0 -- -- 83
2020-03-21 13:00:00 11.6 8 Norte 20 Norte 0 -- -- 82
2020-03-21 12:00:00 10.4 9 Norte 19 Norte 0 -- -- 90
2020-03-21 11:00:00 9.5 5 Noroeste 21 Norte 0.6 -- -- 97
2020-03-21 10:00:00 8.6 10 Norte 23 Noroeste 0.4 -- -- 98
2020-03-21 09:00:00 8.4 5 Norte 14 Nordeste 0 -- -- 97
2020-03-21 08:00:00 7.6 6 Norte 17 Norte 0.2 -- -- 99
2020-03-21 07:00:00 7.7 8 Norte 19 Norte 0 -- -- 100
2020-03-21 06:00:00 7.5 8 Norte 13 Norte 0 -- -- 100
2020-03-21 05:00:00 7.6 4 Norte 21 Norte 0 -- -- 100
2020-03-21 04:00:00 8.4 8 Norte 16 Nordeste 0.2 -- -- 100
2020-03-21 03:00:00 7.9 5 Noroeste 22 Norte 0 -- -- 100
2020-03-21 02:00:00 9 12 Norte 22 Norte 0 -- -- 100
2020-03-21 01:00:00 9.4 14 Norte 28 Norte 0 -- -- 100
2020-03-21 00:00:00 9.7 15 Norte 31 Norte 0 -- -- 100
2020-03-20 23:00:00 9.7 11 Norte 27 Norte 0.4 -- -- 100
2020-03-20 22:00:00 10.1 11 Norte 28 Norte 1.4 -- -- 100
2020-03-20 21:00:00 10.1 11 Norte 23 Norte 1.6 -- -- 100
2020-03-20 20:00:00 10.2 9 Norte 25 Norte 1.4 -- -- 99
2020-03-20 19:00:00 10.4 11 Norte 26 Norte 1.8 -- -- 99
2020-03-20 18:00:00 10.9 10 Noroeste 20 Noroeste 0.6 -- -- 96
2020-03-20 17:00:00 12.4 9 Noroeste 22 Noroeste 0 -- -- 84
2020-03-20 16:00:00 15.4 11 Noroeste 22 Noroeste 0 -- -- 73
2020-03-20 15:00:00 13.8 12 Noroeste 22 Noroeste 0 -- -- 82
2020-03-20 14:00:00 15.1 12 Noroeste 23 Norte 0 -- -- 81
2020-03-20 13:00:00 13 13 Norte 23 Noroeste 0 -- -- 96
2020-03-20 12:00:00 11.9 13 Noroeste 28 Norte 0 -- -- 98
2020-03-20 11:00:00 11.9 17 Norte 29 Noroeste 0 -- -- 99
2020-03-20 10:00:00 11.2 17 Norte 31 Noroeste 0 -- -- 100
2020-03-20 09:00:00 9.9 10 Noroeste 26 Norte 0.2 -- -- 100
2020-03-20 08:00:00 10.1 17 Norte 42 Noroeste 0.2 -- -- 100
2020-03-20 07:00:00 9.9 12 Noroeste 32 Noroeste 0 -- -- 100
2020-03-20 06:00:00 10.2 20 Noroeste 39 Noroeste 0 -- -- 100
2020-03-20 05:00:00 10.4 18 Noroeste 31 Norte 0 -- -- 100
2020-03-20 04:00:00 10.6 18 Noroeste 30 Noroeste 0 -- -- 100
2020-03-20 03:00:00 10.4 18 Noroeste 31 Noroeste 0.2 -- -- 100
2020-03-20 02:00:00 10.6 14 Norte 30 Noroeste 0 -- -- 100
2020-03-20 01:00:00 10.5 21 Norte 38 Oeste 0 -- -- 100
2020-03-20 00:00:00 10.5 19 Noroeste 37 Noroeste 0.2 -- -- 100
2020-03-19 23:00:00 10.6 18 Noroeste 42 Noroeste 0.6 -- -- 100
2020-03-19 22:00:00 10.7 14 Norte 33 Noroeste 1 -- -- 100
2020-03-19 21:00:00 10.7 12 Norte 45 Norte 0.4 -- -- 99
2020-03-19 20:00:00 10.8 19 Norte 39 Norte 0.2 -- -- 99
2020-03-19 19:00:00 10.9 17 Norte 35 Noroeste 0 -- -- 99
2020-03-19 18:00:00 11.2 17 Norte 30 Noroeste 0 -- -- 98
2020-03-19 17:00:00 11.4 13 Norte 30 Norte 0 -- -- 96
2020-03-19 16:00:00 12.1 13 Noroeste 26 Noroeste 0 -- -- 89
2020-03-19 15:00:00 12.6 16 Norte 29 Norte 0 -- -- 84
2020-03-19 14:00:00 15.3 16 Norte 32 Noroeste 0 -- -- 65
2020-03-19 13:00:00 13.7 15 Noroeste 31 Noroeste 0.2 -- -- 81
2020-03-19 12:00:00 12 17 Noroeste 39 Noroeste 0 -- -- 98
2020-03-19 11:00:00 11 22 Noroeste 49 Noroeste 0 -- -- 100
2020-03-19 10:00:00 11 25 Noroeste 50 Noroeste 0.2 -- -- 100
2020-03-19 09:00:00 10.9 25 Noroeste 48 Norte 0.4 -- -- 100
2020-03-19 08:00:00 10.7 24 Noroeste 41 Noroeste 0.4 -- -- 100
2020-03-19 07:00:00 10.3 20 Noroeste 46 Noroeste 1 -- -- 100
2020-03-19 06:00:00 10 21 Noroeste 47 Noroeste 1 -- -- 100
2020-03-19 05:00:00 9.7 23 Noroeste 40 Noroeste 0 -- -- 100
2020-03-19 04:00:00 9.6 25 Noroeste 42 Noroeste 0 -- -- 100
2020-03-19 03:00:00 9.7 24 Noroeste 61 Noroeste 0.2 -- -- 100
2020-03-19 02:00:00 10.1 26 Noroeste 44 Noroeste 0.2 -- -- 100
2020-03-19 01:00:00 9.5 26 Noroeste 46 Noroeste 0.2 -- -- 99
2020-03-19 00:00:00 9.1 25 Noroeste 43 Noroeste 0 -- -- 98
2020-03-18 23:00:00 8.8 23 Noroeste 40 Noroeste 0 -- -- 99
2020-03-18 22:00:00 8.2 22 Noroeste 45 Norte 0 -- -- 100
2020-03-18 21:00:00 9 23 Noroeste 51 Noroeste 0.8 -- -- 100
2020-03-18 20:00:00 9.3 30 Noroeste 47 Noroeste 0 -- -- 99
2020-03-18 19:00:00 9.4 22 Noroeste 50 Noroeste 0.2 -- -- 98
2020-03-18 18:00:00 9.7 24 Noroeste 42 Noroeste 0 -- -- 94
2020-03-18 17:00:00 10.1 23 Noroeste 45 Noroeste 0 -- -- 94
2020-03-18 16:00:00 11.1 24 Noroeste 39 Noroeste 0 -- -- 86
2020-03-18 15:00:00 11.4 23 Noroeste 40 Noroeste 0 -- -- 84
2020-03-18 14:00:00 13.9 17 Noroeste 37 Noroeste 0 -- -- 72
2020-03-18 13:00:00 12.8 16 Noroeste 33 Noroeste 0 -- -- 84
2020-03-18 12:00:00 10.8 17 Noroeste 33 Noroeste 0 -- -- 100
2020-03-18 11:00:00 10.3 16 Noroeste 33 Norte 0.2 -- -- 100
2020-03-18 10:00:00 8.4 18 Noroeste 28 Noroeste 0 -- -- 100
2020-03-18 09:00:00 8.6 17 Noroeste 31 Noroeste 0 -- -- 100
2020-03-18 08:00:00 8.3 15 Noroeste 27 Norte 0 -- -- 100
2020-03-18 07:00:00 8.1 17 Noroeste 36 Noroeste 0.6 -- -- 100
2020-03-18 06:00:00 8.2 14 Noroeste 32 Norte 0.6 -- -- 100
2020-03-18 05:00:00 7.6 12 Noroeste 42 Norte 2 -- -- 100
2020-03-18 04:00:00 8.2 14 Noroeste 34 Noroeste 0.6 -- -- 100
2020-03-18 03:00:00 8 13 Noroeste 30 Noroeste 0.2 -- -- 100
2020-03-18 02:00:00 8.1 15 Noroeste 34 Noroeste 0.2 -- -- 100
2020-03-18 01:00:00 8.4 15 Norte 36 Noroeste 0.6 -- -- 100
2020-03-18 00:00:00 8.3 14 Norte 36 Norte 1.2 -- -- 100
2020-03-17 23:00:00 8.5 15 Noroeste 27 Norte 2.2 -- -- 100
2020-03-17 22:00:00 8.3 9 Noroeste 33 Norte 0 -- -- 99
2020-03-17 21:00:00 8.7 14 Norte 31 Noroeste 0.2 -- -- 99
2020-03-17 20:00:00 8.4 7 Noroeste 28 Norte 0.4 -- -- 99
2020-03-17 19:00:00 8.4 9 Noroeste 22 Noroeste 0 -- -- 95
2020-03-17 18:00:00 9.6 8 Noroeste 26 Norte 0 -- -- 92
2020-03-17 17:00:00 9.5 10 Noroeste 25 Norte 0.2 -- -- 97
2020-03-17 16:00:00 10 6 Norte 25 Norte 0.2 -- -- 96
2020-03-17 15:00:00 10.6 7 Norte 26 Norte 0 -- -- 91
2020-03-17 14:00:00 10 6 Norte 28 Norte 0.2 -- -- 96
2020-03-17 13:00:00 10.4 9 Norte 27 Norte 0.2 -- -- 95
2020-03-17 12:00:00 9.6 13 Norte 32 Nordeste 1.2 -- -- 100
2020-03-17 11:00:00 9.1 9 Norte 29 Norte 0.4 -- -- 98
2020-03-17 10:00:00 8.2 5 Nordeste 27 Norte 0.6 -- -- 100
2020-03-17 09:00:00 7.7 11 Norte 23 Norte 0.6 -- -- 99
2020-03-17 08:00:00 7.6 4 Nordeste 19 Nordeste 0.8 -- -- 100
2020-03-17 07:00:00 7.2 5 Nordeste 23 Norte 0.6 -- -- 100
2020-03-17 06:00:00 7.7 13 Nordeste 31 Norte 1.2 -- -- 100
2020-03-17 05:00:00 7.5 8 Nordeste 22 Norte 2 -- -- 100
2020-03-17 04:00:00 7.7 8 Nordeste 27 Nordeste 1.2 -- -- 100
2020-03-17 03:00:00 7.7 9 Nordeste 19 Nordeste 0.6 -- -- 100
2020-03-17 02:00:00 7.5 10 Norte 23 Norte 0 -- -- 100
2020-03-17 01:00:00 7.7 8 Norte 24 Norte 0.2 -- -- 100
2020-03-17 00:00:00 8.1 9 Norte 26 Norte 0.4 -- -- 100
2020-03-16 23:00:00 9.2 12 Norte 34 Norte 0.8 -- -- 100
2020-03-16 22:00:00 9.5 17 Norte 33 Norte 0.4 -- -- 99
2020-03-16 21:00:00 9.8 14 Norte 35 Norte 1 -- -- 100
2020-03-16 20:00:00 10.1 14 Norte 37 Noroeste 0.6 -- -- 99
2020-03-16 19:00:00 9.9 16 Norte 31 Norte 0.6 -- -- 99
2020-03-16 18:00:00 10.2 14 Norte 28 Norte 0 -- -- 97
2020-03-16 17:00:00 11.3 11 Norte 30 Norte 0.2 -- -- 93
2020-03-16 16:00:00 12.4 10 Norte 23 Norte 0 -- -- 84
2020-03-16 15:00:00 12.7 11 Norte 25 Norte 0 -- -- 82
2020-03-16 14:00:00 12.9 13 Norte 26 Norte 0 -- -- 77
2020-03-16 13:00:00 12.6 9 Norte 31 Nordeste 0 -- -- 77
2020-03-16 12:00:00 12.5 7 Norte 21 Norte 0 -- -- 82
2020-03-16 11:00:00 11 10 Norte 31 Norte 0 -- -- 98
2020-03-16 10:00:00 9.3 12 Norte 28 Norte 0.8 -- -- 100
2020-03-16 09:00:00 9.7 13 Norte 35 Norte 0.2 -- -- 100
2020-03-16 08:00:00 9.7 10 Norte 35 Norte 0 -- -- 100
2020-03-16 07:00:00 9.4 15 Norte 31 Norte 0 -- -- 100
2020-03-16 06:00:00 9.3 7 Norte 31 Norte 0.2 -- -- 100
2020-03-16 05:00:00 10 11 Norte 33 Norte 0 -- -- 100
2020-03-16 04:00:00 9.5 13 Norte 35 Norte 0 -- -- 99
2020-03-16 03:00:00 10.1 15 Norte 27 Norte 0.2 -- -- 100
2020-03-16 02:00:00 9.9 10 Norte 29 Norte 0 -- -- 100
2020-03-16 01:00:00 10 10 Norte 29 Norte 0.2 -- -- 100
2020-03-16 00:00:00 10 8 Norte 25 Norte 0 -- -- 99
2020-03-15 23:00:00 9.8 12 Norte 37 Norte 0.4 -- -- 99
2020-03-15 22:00:00 10 7 Norte 23 Noroeste 0 -- -- 99
2020-03-15 21:00:00 9.7 7 Noroeste 21 Noroeste 0 -- -- 99
2020-03-15 20:00:00 9.6 12 Norte 32 Noroeste 0.2 -- -- 99
2020-03-15 19:00:00 9.5 20 Norte 35 Norte 0.2 -- -- 98
2020-03-15 18:00:00 9.9 17 Norte 36 Noroeste 0 -- -- 98
2020-03-15 17:00:00 10.4 20 Norte 37 Norte 2.6 -- -- 97
2020-03-15 16:00:00 11 18 Norte 31 Noroeste 0.4 -- -- 91
2020-03-15 15:00:00 14 12 Norte 27 Noroeste 0 -- -- 75
2020-03-15 14:00:00 13.4 14 Norte 31 Noroeste 0 -- -- 67
2020-03-15 13:00:00 11.9 14 Norte 25 Noroeste 0.2 -- -- 87
2020-03-15 12:00:00 11.6 9 Noroeste 28 Norte 0 -- -- 87
2020-03-15 11:00:00 11.4 13 Norte 26 Norte 0 -- -- 96
2020-03-15 10:00:00 10 8 Noroeste 26 Norte 0.2 -- -- 98
2020-03-15 09:00:00 9.6 12 Noroeste 26 Norte 0.2 -- -- 99
2020-03-15 08:00:00 9.2 6 Noroeste 20 Norte 0 -- -- 99
2020-03-15 07:00:00 9.3 12 Norte 30 Noroeste 0.2 -- -- 99
2020-03-15 06:00:00 9.2 9 Noroeste 17 Noroeste 0.2 -- -- 99
2020-03-15 05:00:00 9.2 9 Noroeste 23 Noroeste 0.2 -- -- 99
2020-03-15 04:00:00 9 12 Norte 22 Norte 0.4 -- -- 97
2020-03-15 03:00:00 9.4 13 Norte 21 Norte 0.2 -- -- 98
2020-03-15 02:00:00 9.6 6 Noroeste 14 Oeste 0 -- -- 97
2020-03-15 01:00:00 9.5 8 Noroeste 16 Oeste 0 -- -- 95
2020-03-15 00:00:00 9.4 9 Oeste 16 Noroeste 0 -- -- 92
2020-03-14 23:00:00 8.9 9 Oeste 17 Oeste 0 -- -- 90
2020-03-14 22:00:00 8.7 8 Oeste 19 Noroeste 0 -- -- 89
2020-03-14 21:00:00 9.2 11 Oeste 19 Oeste 0 -- -- 89
2020-03-14 20:00:00 9 10 Oeste 22 Oeste 0 -- -- 84
2020-03-14 19:00:00 9.9 7 Noroeste 15 Noroeste 0 -- -- 82
2020-03-14 18:00:00 12.7 10 Noroeste 17 Noroeste 0 -- -- 67
2020-03-14 17:00:00 13.2 8 Noroeste 16 Noroeste 0 -- -- 75
2020-03-14 16:00:00 13.5 8 Norte 17 Noroeste 0 -- -- 71
2020-03-14 15:00:00 12.4 9 Norte 17 Norte 0 -- -- 80
2020-03-14 14:00:00 12 6 Norte 18 Norte 0 -- -- 85
2020-03-14 13:00:00 12 7 Norte 18 Nordeste 0 -- -- 89
2020-03-14 12:00:00 13.8 6 Este 20 Este 0 -- -- 77
2020-03-14 11:00:00 13.9 9 Este 19 Este 0 -- -- 82
2020-03-14 10:00:00 12.3 4 Este 14 Este 0 -- -- 79
2020-03-14 09:00:00 11.1 3 Sur 12 Nordeste 0 -- -- 85
2020-03-14 08:00:00 9.9 2 Nordeste 16 Nordeste 0 -- -- 93
2020-03-14 07:00:00 9.6 7 Nordeste 16 Nordeste 0 -- -- 96
2020-03-14 06:00:00 10 0 Calma 10 Nordeste 0 -- -- 97
2020-03-14 05:00:00 9.7 5 Este 15 Sudeste 0 -- -- 97
2020-03-14 04:00:00 9.8 4 Nordeste 11 Norte 0.2 -- -- 97
2020-03-14 03:00:00 10.6 5 Sudeste 17 Este 0 -- -- 97
2020-03-14 02:00:00 10.7 7 Este 15 Este 0 -- -- 96
2020-03-14 01:00:00 10.9 3 Este 10 Sudeste 0 -- -- 96
2020-03-14 00:00:00 11.1 2 Norte 8 Nordeste 0 -- -- 93
2020-03-13 23:00:00 10.6 3 Norte 13 Nordeste 0 -- -- 91
2020-03-13 22:00:00 11 0 Calma 9 Este 0 -- -- 93
2020-03-13 21:00:00 10.8 3 Este 10 Noroeste 0 -- -- 92
2020-03-13 20:00:00 11.4 0 Calma 12 Oeste 0 -- -- 92
2020-03-13 19:00:00 11.6 2 Norte 12 Norte 0 -- -- 91
2020-03-13 18:00:00 12.2 6 Norte 11 Norte 0 -- -- 89
2020-03-13 17:00:00 13.9 3 Noroeste 11 Norte 0 -- -- 82
2020-03-13 16:00:00 16.1 4 Norte 14 Sudeste 0 -- -- 75
2020-03-13 15:00:00 17.4 9 Sudeste 18 Este 0 -- -- 68
2020-03-13 14:00:00 19.4 6 Sudeste 21 Este 0 -- -- 60
2020-03-13 13:00:00 17.5 12 Sudeste 20 Este 0 -- -- 67
2020-03-13 12:00:00 16.9 14 Este 22 Sudeste 0 -- -- 70
2020-03-13 11:00:00 13.7 12 Sudeste 19 Este 0 -- -- 83
2020-03-13 10:00:00 15.5 9 Este 15 Sudeste 0 -- -- 74
2020-03-13 09:00:00 12.1 9 Sudeste 14 Sudeste 0 -- -- 87
2020-03-13 08:00:00 11.9 5 Sudeste 10 Este 0 -- -- 62
2020-03-13 07:00:00 9.7 6 Sudeste 12 Sudeste 0 -- -- 96
2020-03-13 06:00:00 10.2 5 Sudeste 9 Sudeste 0 -- -- 85
2020-03-13 05:00:00 11.3 2 Sudeste 5 Sudeste 0 -- -- 51
2020-03-13 04:00:00 15 3 Sur 8 Sudeste 0 -- -- 26
2020-03-13 03:00:00 15.2 3 Sudeste 9 Sudeste 0 -- -- 27
2020-03-13 02:00:00 16 2 Nordeste 6 Nordeste 0 -- -- 26
2020-03-13 01:00:00 16.4 0 Calma 7 Norte 0 -- -- 24
2020-03-13 00:00:00 16.4 5 Norte 8 Norte 0 -- -- 25
2020-03-12 23:00:00 17.1 5 Norte 10 Norte 0 -- -- 22
2020-03-12 22:00:00 19 0 Calma 5 Sur 0 -- -- 21
2020-03-12 21:00:00 19.2 2 Sur 6 Sudeste 0 -- -- 22
2020-03-12 20:00:00 18.3 4 Sudeste 7 Sudeste 0 -- -- 34
2020-03-12 19:00:00 19.1 2 Sudeste 5 Sudeste 0 -- -- 33
2020-03-12 18:00:00 22.7 3 Norte 8 Norte 0 -- -- 44
2020-03-12 17:00:00 24.1 5 Norte 10 Noroeste 0 -- -- 31
2020-03-12 16:00:00 25.2 5 Este 14 Norte 0 -- -- 45
2020-03-12 15:00:00 25 8 Norte 14 Noroeste 0 -- -- 24
2020-03-12 14:00:00 24.3 4 Este 32 Sudeste 0 -- -- 51
2020-03-12 13:00:00 25.2 14 Este 37 Este 0 -- -- 22
2020-03-12 12:00:00 24.6 17 Este 30 Este 0 -- -- 22
2020-03-12 11:00:00 24.6 16 Sudeste 27 Sudeste 0 -- -- 16
2020-03-12 10:00:00 23.2 20 Sudeste 34 Este 0 -- -- 14
2020-03-12 09:00:00 21.1 22 Sudeste 32 Sudeste 0 -- -- 14
2020-03-12 08:00:00 19 17 Sudeste 23 Sudeste 0 -- -- 15
2020-03-12 07:00:00 18.1 12 Sur 20 Sudeste 0 -- -- 12
2020-03-12 06:00:00 17.8 13 Sudeste 26 Sudeste 0 -- -- 13
2020-03-12 05:00:00 17 16 Sudeste 25 Sudeste 0 -- -- 13
2020-03-12 04:00:00 17.1 15 Sudeste 20 Sudeste 0 -- -- 12
2020-03-12 03:00:00 17.2 14 Sudeste 16 Sudeste 0 -- -- 13
2020-03-12 02:00:00 17.5 13 Sudeste 15 Este 0 -- -- 16
2020-03-12 01:00:00 18.4 5 Sudeste 6 Sudeste 0 -- -- 14
2020-03-12 00:00:00 19.4 5 Nordeste 6 Sur 0 -- -- 12
2020-03-11 23:00:00 19.1 6 Sur 8 Sur 0 -- -- 13
2020-03-11 22:00:00 19.4 3 Sur 7 Sudoeste 0 -- -- 14
2020-03-11 21:00:00 19.3 4 Sudoeste 6 Sudoeste 0 -- -- 14
2020-03-11 20:00:00 19.1 5 Sudoeste 8 Sudoeste 0 -- -- 14
2020-03-11 19:00:00 21 5 Oeste 10 Sudoeste 0 -- -- 19
2020-03-11 18:00:00 21.7 3 Oeste 11 Norte 0 -- -- 42
2020-03-11 17:00:00 24.7 8 Norte 16 Norte 0 -- -- 19
2020-03-11 16:00:00 24.8 6 Norte 12 Norte 0 -- -- 35
2020-03-11 15:00:00 22 6 Este 28 Nordeste 0 -- -- 27
2020-03-11 14:00:00 24.5 14 Este 29 Sudeste 0 -- -- 25
2020-03-11 13:00:00 24.6 16 Este 32 Este 0 -- -- 19
2020-03-11 12:00:00 24.5 19 Sudeste 32 Este 0 -- -- 15
2020-03-11 11:00:00 20.7 15 Sudeste 23 Sur 0 -- -- 19
2020-03-11 10:00:00 19 10 Sudeste 16 Sudeste 0 -- -- 16
2020-03-11 09:00:00 19.4 11 Sudeste 15 Sudeste 0 -- -- 19
2020-03-11 08:00:00 18.3 9 Sudeste 18 Sudeste 0 -- -- 12
2020-03-11 07:00:00 17.1 15 Sudeste 19 Este 0 -- -- 10
2020-03-11 06:00:00 15.9 15 Sudeste 22 Sudeste 0 -- -- 11
2020-03-11 05:00:00 15.7 18 Sudeste 21 Sudeste 0 -- -- 13
2020-03-11 04:00:00 16.7 15 Sudeste 19 Sudeste 0 -- -- 10
2020-03-11 03:00:00 16.1 9 Sudeste 13 Este 0 -- -- 10
2020-03-11 02:00:00 17.2 10 Sudeste 14 Sudeste 0 -- -- 5
2020-03-11 01:00:00 17.1 10 Sudeste 12 Sudeste 0 -- -- 10
2020-03-11 00:00:00 16.5 9 Sudeste 12 Sudeste 0 -- -- 17
2020-03-10 23:00:00 16 9 Sudeste 10 Sudeste 0 -- -- 18
2020-03-10 22:00:00 17.5 2 Nordeste 5 Sur 0 -- -- 17
2020-03-10 21:00:00 17 0 Calma 8 Noroeste 0 -- -- 26
2020-03-10 20:00:00 17.5 3 Noroeste 8 Oeste 0 -- -- 22
2020-03-10 19:00:00 17.6 7 Oeste 10 Oeste 0 -- -- 45
2020-03-10 18:00:00 21 5 Noroeste 8 Oeste 0 -- -- 52
2020-03-10 17:00:00 22.9 2 Norte 8 Norte 0 -- -- 47
2020-03-10 16:00:00 23.5 4 Sudeste 10 Sudeste 0 -- -- 54
2020-03-10 15:00:00 24.3 5 Sudeste 10 Este 0 -- -- 49
2020-03-10 14:00:00 23.1 5 Este 15 Este 0 -- -- 52
2020-03-10 13:00:00 22.3 11 Este 19 Sudeste 0 -- -- 52
2020-03-10 12:00:00 24 12 Este 20 Este 0 -- -- 35
2020-03-10 11:00:00 23.5 11 Este 16 Este 0 -- -- 34
2020-03-10 10:00:00 23.9 9 Sudeste 19 Este 0 -- -- 15
2020-03-10 09:00:00 19.7 14 Sudeste 21 Sudeste 0 -- -- 9
2020-03-10 08:00:00 16.7 16 Sudeste 21 Sudeste 0 -- -- 11
2020-03-10 07:00:00 15.9 19 Sudeste 25 Sudeste 0 -- -- 9
2020-03-10 06:00:00 15.2 15 Sudeste 21 Sudeste 0 -- -- 18
2020-03-10 05:00:00 16.1 13 Sudeste 25 Sudeste 0 -- -- 16
2020-03-10 04:00:00 15.7 12 Sudeste 20 Sudeste 0 -- -- 18
2020-03-10 03:00:00 15.5 12 Sur 24 Sudeste 0 -- -- 19
2020-03-10 02:00:00 15.5 12 Sudeste 21 Sudeste 0 -- -- 21
2020-03-10 01:00:00 15.5 12 Sudeste 19 Sudeste 0 -- -- 26
2020-03-10 00:00:00 15.6 12 Sudeste 24 Sudeste 0 -- -- 31
2020-03-09 23:00:00 15.5 11 Sudeste 21 Sudeste 0 -- -- 30
2020-03-09 22:00:00 15.7 13 Sudeste 22 Sudeste 0 -- -- 33
2020-03-09 21:00:00 15.6 12 Sudeste 20 Sudeste 0 -- -- 32
2020-03-09 20:00:00 16 10 Sudeste 18 Sudeste 0 -- -- 32
2020-03-09 19:00:00 16.1 12 Sudeste 17 Sudeste 0 -- -- 37
2020-03-09 18:00:00 17.6 12 Sudeste 24 Sudeste 0 -- -- 68
2020-03-09 17:00:00 20.1 13 Sudeste 25 Sudeste 0 -- -- 49
2020-03-09 16:00:00 21.1 14 Sudeste 28 Este 0 -- -- 46
2020-03-09 15:00:00 22.7 17 Sudeste 33 Este 0 -- -- 30
2020-03-09 14:00:00 23.3 17 Sudeste 33 Sudeste 0 -- -- 22
2020-03-09 13:00:00 21.6 21 Sudeste 38 Este 0 -- -- 24
2020-03-09 12:00:00 21.3 26 Sudeste 45 Sudeste 0 -- -- 23
2020-03-09 11:00:00 20.8 30 Sudeste 49 Sudeste 0 -- -- 24
2020-03-09 10:00:00 19.8 26 Sudeste 45 Sudeste 0 -- -- 24
2020-03-09 09:00:00 18.1 21 Sudeste 32 Sudeste 0 -- -- 27
2020-03-09 08:00:00 16.1 17 Sudeste 27 Sudeste 0 -- -- 30
2020-03-09 07:00:00 16 14 Sudeste 30 Sudeste 0 -- -- 28
2020-03-09 06:00:00 15 14 Sudeste 26 Sudeste 0 -- -- 30
2020-03-09 05:00:00 14.8 16 Sudeste 26 Sudeste 0 -- -- 31
2020-03-09 04:00:00 14 13 Sudeste 27 Sudeste 0 -- -- 36
2020-03-09 03:00:00 13.5 16 Sudeste 20 Sudeste 0 -- -- 46
2020-03-09 02:00:00 13 13 Sudeste 19 Sudeste 0 -- -- 46
2020-03-09 01:00:00 14.6 8 Sudeste 13 Sudeste 0 -- -- 34
2020-03-09 00:00:00 14.6 5 Sur 15 Sudeste 0 -- -- 36
2020-03-08 23:00:00 15.8 10 Sudeste 19 Este 0 -- -- 34
2020-03-08 22:00:00 17.3 13 Sudeste 21 Sur 0 -- -- 23
2020-03-08 21:00:00 17.1 10 Sudeste 21 Sudeste 0 -- -- 22
2020-03-08 20:00:00 17.8 13 Sudeste 29 Sudeste 0 -- -- 20
2020-03-08 19:00:00 18.6 16 Sudeste 29 Sudeste 0 -- -- 19
2020-03-08 18:00:00 20.4 14 Sudeste 30 Sudeste 0 -- -- 23
2020-03-08 17:00:00 20.6 18 Sudeste 26 Sudeste 0 -- -- 44
2020-03-08 16:00:00 21 13 Sudeste 24 Sudeste 0 -- -- 62
2020-03-08 15:00:00 21.2 14 Sudeste 28 Este 0 -- -- 60
2020-03-08 14:00:00 19.8 19 Este 30 Este 0 -- -- 66
2020-03-08 13:00:00 21.6 16 Sudeste 36 Sudeste 0 -- -- 46
2020-03-08 12:00:00 21.6 27 Sudeste 39 Este 0 -- -- 29
2020-03-08 11:00:00 20.3 14 Sudeste 28 Este 0 -- -- 51
2020-03-08 10:00:00 20.6 18 Sudeste 31 Sudeste 0 -- -- 29
2020-03-08 09:00:00 18.3 17 Sudeste 24 Sudeste 0 -- -- 30
2020-03-08 08:00:00 15.4 18 Sudeste 24 Sudeste 0 -- -- 34
2020-03-08 07:00:00 13.7 15 Sudeste 19 Sudeste 0 -- -- 41
2020-03-08 06:00:00 15 11 Sudeste 15 Sudeste 0 -- -- 35
2020-03-08 05:00:00 14.3 13 Sudeste 18 Sudeste 0 -- -- 43
2020-03-08 04:00:00 12.9 14 Sudeste 17 Este 0 -- -- 56
2020-03-08 03:00:00 9.6 11 Sudeste 14 Sudeste 0 -- -- 95
2020-03-08 02:00:00 9.5 6 Sudeste 9 Sudeste 0 -- -- 99
2020-03-08 01:00:00 10.4 4 Noroeste 11 Noroeste 0 -- -- 99
2020-03-08 00:00:00 10.3 5 Noroeste 10 Noroeste 0 -- -- 98
2020-03-07 23:00:00 10.5 5 Noroeste 10 Oeste 0 -- -- 98
2020-03-07 22:00:00 10.5 4 Noroeste 10 Noroeste 0 -- -- 97
2020-03-07 21:00:00 10.5 5 Noroeste 12 Noroeste 0 -- -- 97
2020-03-07 20:00:00 10.5 6 Noroeste 11 Oeste 0 -- -- 95
2020-03-07 19:00:00 10.8 5 Noroeste 13 Norte 0 -- -- 94
2020-03-07 18:00:00 12 5 Norte 12 Norte 0 -- -- 88
2020-03-07 17:00:00 13.5 6 Noroeste 15 Norte 0 -- -- 82
2020-03-07 16:00:00 14.8 8 Norte 17 Norte 0 -- -- 75
2020-03-07 15:00:00 16 4 Este 21 Este 0 -- -- 71
2020-03-07 14:00:00 15 11 Este 24 Este 0 -- -- 76
2020-03-07 13:00:00 15.3 11 Este 22 Este 0 -- -- 77
2020-03-07 12:00:00 15.1 9 Este 18 Este 0 -- -- 71
2020-03-07 11:00:00 16.3 5 Este 13 Sudeste 0 -- -- 67
2020-03-07 10:00:00 15 3 Nordeste 14 Nordeste 0.2 -- -- 72
2020-03-07 09:00:00 10.4 6 Este 19 Este 0 -- -- 92
2020-03-07 08:00:00 9.3 5 Este 13 Este 0 -- -- 94
2020-03-07 07:00:00 9 5 Sudeste 16 Este 0 -- -- 95
2020-03-07 06:00:00 9.1 9 Este 16 Este 0 -- -- 97
2020-03-07 05:00:00 8.9 8 Sudeste 18 Este 0 -- -- 97
2020-03-07 04:00:00 8.9 6 Este 12 Este 0 -- -- 97
2020-03-07 03:00:00 9 5 Sudeste 15 Nordeste 0 -- -- 96
2020-03-07 02:00:00 9 5 Este 13 Este 0 -- -- 96
2020-03-07 01:00:00 8.9 5 Sudeste 17 Este 0 -- -- 95
2020-03-07 00:00:00 9.1 8 Este 17 Nordeste 0 -- -- 95
2020-03-06 23:00:00 9.3 5 Este 13 Sudeste 0 -- -- 94
2020-03-06 22:00:00 9.1 5 Sudeste 17 Este 0 -- -- 94
2020-03-06 21:00:00 9.4 6 Este 17 Norte 0 -- -- 95
2020-03-06 20:00:00 9.4 4 Este 14 Este 0 -- -- 94
2020-03-06 19:00:00 9.6 5 Este 21 Nordeste 0 -- -- 92
2020-03-06 18:00:00 11 8 Este 19 Nordeste 0 -- -- 87
2020-03-06 17:00:00 10.5 8 Nordeste 19 Nordeste 0 -- -- 95
2020-03-06 16:00:00 11.3 11 Este 21 Este 0 -- -- 87
2020-03-06 15:00:00 10.5 9 Este 23 Este 0 -- -- 94
2020-03-06 14:00:00 10.6 7 Este 22 Este 0 -- -- 98
2020-03-06 13:00:00 10.6 7 Nordeste 23 Nordeste 0 -- -- 100
2020-03-06 12:00:00 10.2 9 Este 26 Este 0 -- -- 100
2020-03-06 11:00:00 9.6 10 Sudeste 25 Este 0.2 -- -- 100
2020-03-06 10:00:00 9.5 8 Este 25 Este 0 -- -- 100
2020-03-06 09:00:00 9.6 8 Este 27 Este 0.8 -- -- 99
2020-03-06 08:00:00 9.4 9 Este 30 Nordeste 0.8 -- -- 100
2020-03-06 07:00:00 10.5 14 Nordeste 29 Nordeste 2 -- -- 98
2020-03-06 06:00:00 11.5 9 Nordeste 25 Nordeste 1.6 -- -- 99
2020-03-06 05:00:00 11.6 9 Este 28 Norte 1.4 -- -- 98
2020-03-06 04:00:00 11.8 9 Nordeste 24 Este 2.4 -- -- 99
2020-03-06 03:00:00 11.6 4 Sur 17 Nordeste 0.8 -- -- 98
2020-03-06 02:00:00 11 6 Sur 15 Nordeste 0.2 -- -- 98
2020-03-06 01:00:00 10.8 6 Nordeste 24 Este 0 -- -- 98
2020-03-06 00:00:00 11 9 Sudeste 19 Este 0.4 -- -- 98
2020-03-05 23:00:00 10.9 4 Sudeste 16 Este 0 -- -- 97
2020-03-05 22:00:00 10.8 6 Sudeste 16 Nordeste 0 -- -- 96
2020-03-05 21:00:00 11.3 0 Calma 11 Nordeste 0 -- -- 93
2020-03-05 20:00:00 11 3 Sudeste 15 Este 0 -- -- 91
2020-03-05 19:00:00 11.6 7 Este 18 Sudeste 0 -- -- 88
2020-03-05 18:00:00 14.9 4 Este 17 Este 0 -- -- 75
2020-03-05 17:00:00 15.4 10 Este 18 Sudeste 0 -- -- 75
2020-03-05 16:00:00 16.4 9 Este 17 Este 0 -- -- 70
2020-03-05 15:00:00 19.3 4 Sudeste 13 Este 0 -- -- 63
2020-03-05 14:00:00 19.3 6 Sudeste 12 Sur 0 -- -- 60
2020-03-05 13:00:00 19.2 3 Nordeste 13 Este 0 -- -- 64
2020-03-05 12:00:00 20 7 Sudeste 17 Este 0 -- -- 62
2020-03-05 11:00:00 20.8 4 Este 12 Sudeste 0 -- -- 55
2020-03-05 10:00:00 15.3 6 Norte 11 Norte 0 -- -- 76
2020-03-05 09:00:00 13.1 4 Noroeste 12 Norte 0 -- -- 83
2020-03-05 08:00:00 14.6 3 Nordeste 13 Este 0 -- -- 51
2020-03-05 07:00:00 14.5 8 Este 17 Este 0 -- -- 50
2020-03-05 06:00:00 14.7 3 Nordeste 9 Norte 0 -- -- 49
2020-03-05 05:00:00 15.6 5 Este 10 Este 0 -- -- 33
2020-03-05 04:00:00 16.1 2 Norte 7 Sudeste 0 -- -- 32
2020-03-05 03:00:00 15.5 7 Este 15 Este 0 -- -- 31
2020-03-05 02:00:00 15.5 11 Este 18 Sudeste 0 -- -- 36
2020-03-05 01:00:00 15.4 11 Este 18 Este 0 -- -- 38
2020-03-05 00:00:00 16 11 Este 17 Este 0 -- -- 36
2020-03-04 23:00:00 15.8 8 Este 16 Nordeste 0 -- -- 33
2020-03-04 22:00:00 15.7 7 Este 11 Este 0 -- -- 38
2020-03-04 21:00:00 16.7 6 Nordeste 16 Sudeste 0 -- -- 39
2020-03-04 20:00:00 17.2 13 Sudeste 21 Este 0 -- -- 38
2020-03-04 19:00:00 17.6 18 Sudeste 21 Sudeste 0 -- -- 45
2020-03-04 18:00:00 19.7 16 Sudeste 21 Sudeste 0 -- -- 52
2020-03-04 17:00:00 21.5 14 Este 22 Este 0 -- -- 42
2020-03-04 16:00:00 22.8 13 Este 20 Sudeste 0 -- -- 40
2020-03-04 15:00:00 23.3 13 Este 21 Este 0 -- -- 30
2020-03-04 14:00:00 23.2 15 Este 24 Sudeste 0 -- -- 33
2020-03-04 13:00:00 23.3 14 Este 22 Este 0 -- -- 28
2020-03-04 12:00:00 24.2 17 Este 24 Sudeste 0 -- -- 22
2020-03-04 11:00:00 23.6 14 Sudeste 24 Sudeste 0 -- -- 24
2020-03-04 10:00:00 21.7 16 Sudeste 22 Sudeste 0 -- -- 29
2020-03-04 09:00:00 20.1 16 Sudeste 20 Este 0 -- -- 26
2020-03-04 08:00:00 17.8 16 Sudeste 25 Sudeste 0 -- -- 28
2020-03-04 07:00:00 16.3 19 Sudeste 26 Sudeste 0 -- -- 26
2020-03-04 06:00:00 14.6 23 Sudeste 27 Sudeste 0 -- -- 32
2020-03-04 05:00:00 14.2 24 Sudeste 29 Este 0 -- -- 31
2020-03-04 04:00:00 14.3 26 Sudeste 31 Este 0 -- -- 36
2020-03-04 03:00:00 15.2 26 Sudeste 32 Este 0 -- -- 34
2020-03-04 02:00:00 16.1 25 Sudeste 31 Sudeste 0 -- -- 36
2020-03-04 01:00:00 16.1 24 Sudeste 28 Sudeste 0 -- -- 37
2020-03-04 00:00:00 16 20 Sudeste 29 Sudeste 0 -- -- 42
2020-03-03 23:00:00 16.3 20 Sudeste 28 Sudeste 0 -- -- 43
2020-03-03 22:00:00 16.3 20 Sudeste 23 Sudeste 0 -- -- 45
2020-03-03 21:00:00 15.8 16 Sudeste 27 Este 0 -- -- 49
2020-03-03 20:00:00 16.8 14 Sudeste 18 Sudeste 0 -- -- 45
2020-03-03 19:00:00 16 14 Sudeste 19 Sudeste 0 -- -- 53
2020-03-03 18:00:00 16.4 11 Sudeste 17 Sudeste 0 -- -- 76
2020-03-03 17:00:00 18.4 11 Sudeste 18 Sudeste 0 -- -- 68
2020-03-03 16:00:00 19.9 11 Sudeste 17 Este 0 -- -- 61
2020-03-03 15:00:00 20.7 11 Sudeste 16 Este 0 -- -- 57
2020-03-03 14:00:00 22.3 6 Este 17 Sudeste 0 -- -- 56
2020-03-03 13:00:00 20.6 9 Este 17 Este 0 -- -- 64
2020-03-03 12:00:00 21.2 9 Sudeste 19 Este 0 -- -- 59
2020-03-03 11:00:00 19.1 13 Sudeste 18 Este 0 -- -- 68
2020-03-03 10:00:00 16.9 12 Sudeste 20 Sudeste 0 -- -- 71
2020-03-03 09:00:00 13.3 17 Sudeste 23 Sudeste 0 -- -- 77
2020-03-03 08:00:00 10.5 18 Sudeste 24 Este 0 -- -- 98
2020-03-03 07:00:00 12.5 18 Sudeste 26 Sudeste 0 -- -- 60
2020-03-03 06:00:00 10.1 15 Sudeste 23 Este 0 -- -- 98
2020-03-03 05:00:00 10.7 17 Sudeste 24 Este 0 -- -- 96
2020-03-03 04:00:00 14.6 17 Sudeste 22 Sudeste 0 -- -- 45
2020-03-03 03:00:00 14.4 18 Sudeste 23 Sudeste 0 -- -- 49
2020-03-03 02:00:00 14.1 15 Sudeste 18 Sudeste 0 -- -- 34
2020-03-03 01:00:00 13.4 13 Sudeste 19 Sudeste 0 -- -- 40
2020-03-03 00:00:00 10.4 14 Sudeste 22 Este 0 -- -- 94
2020-03-02 23:00:00 11.7 13 Sudeste 19 Sudeste 0 -- -- 70
2020-03-02 22:00:00 10.8 5 Sur 8 Este 0 -- -- 94
2020-03-02 21:00:00 11.7 3 Sudeste 13 Este 0 -- -- 94
2020-03-02 20:00:00 12.2 2 Sudeste 13 Norte 0 -- -- 92
2020-03-02 19:00:00 12.3 5 Nordeste 15 Norte 0 -- -- 87
2020-03-02 18:00:00 13.8 6 Norte 17 Norte 0 -- -- 83
2020-03-02 17:00:00 16.7 9 Norte 19 Noroeste 0 -- -- 69
2020-03-02 16:00:00 16.4 11 Norte 21 Norte 0 -- -- 68
2020-03-02 15:00:00 17.3 10 Norte 19 Norte 0 -- -- 62
2020-03-02 14:00:00 16.2 6 Norte 22 Norte 0 -- -- 72
2020-03-02 13:00:00 16.8 9 Norte 20 Norte 0 -- -- 68
2020-03-02 12:00:00 16.5 8 Norte 22 Noroeste 0 -- -- 69
2020-03-02 11:00:00 17.7 9 Norte 17 Sur 0 -- -- 66
2020-03-02 10:00:00 13.5 6 Oeste 15 Noroeste 0 -- -- 83
2020-03-02 09:00:00 12.6 6 Norte 13 Nordeste 0 -- -- 88
2020-03-02 08:00:00 10.2 5 Oeste 14 Oeste 0 -- -- 95
2020-03-02 07:00:00 10.2 11 Oeste 24 Oeste 0 -- -- 95
2020-03-02 06:00:00 9.9 11 Oeste 17 Noroeste 0 -- -- 96
2020-03-02 05:00:00 9.5 5 Noroeste 13 Noroeste 0 -- -- 95
2020-03-02 04:00:00 10.3 8 Noroeste 14 Noroeste 0 -- -- 96
2020-03-02 03:00:00 10.3 7 Noroeste 13 Noroeste 0 -- -- 96
2020-03-02 02:00:00 10.2 5 Noroeste 13 Oeste 0 -- -- 95
2020-03-02 01:00:00 10.8 10 Oeste 15 Oeste 0 -- -- 95
2020-03-02 00:00:00 10.7 9 Oeste 18 Norte 0 -- -- 95
2020-03-01 23:00:00 12 8 Norte 14 Noroeste 0 -- -- 71
2020-03-01 22:00:00 11.3 8 Oeste 13 Oeste 0 -- -- 70
2020-03-01 21:00:00 10.4 5 Noroeste 9 Oeste 0 -- -- 94
2020-03-01 20:00:00 11.4 6 Noroeste 12 Noroeste 0 -- -- 93
2020-03-01 19:00:00 14.8 9 Oeste 14 Oeste 0 -- -- 61
2020-03-01 18:00:00 14.9 5 Noroeste 12 Noroeste 0 -- -- 81
2020-03-01 17:00:00 19.1 8 Noroeste 12 Noroeste 0 -- -- 62
2020-03-01 16:00:00 19.1 9 Noroeste 17 Noroeste 0 -- -- 64
2020-03-01 15:00:00 22 9 Noroeste 20 Noroeste 0 -- -- 38
2020-03-01 14:00:00 20.9 7 Noroeste 15 Noroeste 0 -- -- 52
2020-03-01 13:00:00 21.2 7 Noroeste 12 Noroeste 0 -- -- 40
2020-03-01 12:00:00 20.2 4 Norte 11 Noroeste 0 -- -- 58
2020-03-01 11:00:00 21.5 4 Noroeste 8 Norte 0 -- -- 26
2020-03-01 10:00:00 18.3 4 Oeste 6 Oeste 0 -- -- 34
2020-03-01 09:00:00 11.4 5 Norte 7 Oeste 0 -- -- 85
2020-03-01 08:00:00 15 4 Oeste 8 Noroeste 0 -- -- 39
2020-03-01 07:00:00 15.5 3 Noroeste 10 Nordeste 0 -- -- 37
2020-03-01 06:00:00 15.9 4 Sudoeste 7 Sudoeste 0 -- -- 37
2020-03-01 05:00:00 15.1 4 Norte 8 Norte 0 -- -- 37
2020-03-01 04:00:00 15.2 0 Calma 7 Noroeste 0 -- -- 34
2020-03-01 03:00:00 12.9 2 Oeste 8 Sudeste 0 -- -- 54
2020-03-01 02:00:00 14.8 6 Sudeste 14 Sudeste 0 -- -- 38
2020-03-01 01:00:00 15.3 7 Sudeste 10 Este 0 -- -- 27
2020-03-01 00:00:00 15.8 5 Sudeste 10 Sudeste 0 -- -- 26
2020-02-29 23:00:00 15.6 5 Sudeste 13 Este 0 -- -- 24
2020-02-29 22:00:00 15.8 6 Sudeste 17 Sudeste 0 -- -- 22
2020-02-29 21:00:00 16 7 Este 15 Este 0 -- -- 21
2020-02-29 20:00:00 14.1 8 Sudeste 14 Sudeste 0 -- -- 24
2020-02-29 19:00:00 14.5 9 Sudeste 15 Sudeste 0 -- -- 36
2020-02-29 18:00:00 16.9 11 Este 15 Este 0 -- -- 31
2020-02-29 17:00:00 17.3 7 Sudeste 17 Este 0 -- -- 64
2020-02-29 16:00:00 19.6 11 Sudeste 19 Sudeste 0 -- -- 31
2020-02-29 15:00:00 20.4 9 Este 18 Este 0 -- -- 33
2020-02-29 14:00:00 20.1 9 Sudeste 16 Este 0 -- -- 32
2020-02-29 13:00:00 19 9 Sudeste 16 Sudeste 0 -- -- 59
2020-02-29 12:00:00 20.5 9 Este 18 Este 0 -- -- 46
2020-02-29 11:00:00 20.4 10 Sudeste 15 Sudeste 0 -- -- 44
2020-02-29 10:00:00 19.3 7 Sudeste 14 Este 0 -- -- 20
2020-02-29 09:00:00 16.6 8 Sudeste 13 Este 0 -- -- 18
2020-02-29 08:00:00 14.8 4 Sudeste 10 Este 0 -- -- 18
2020-02-29 07:00:00 16.2 3 Noroeste 12 Sudoeste 0 -- -- 9
2020-02-29 06:00:00 15.6 3 Noroeste 9 Oeste 0 -- -- 13
2020-02-29 05:00:00 15.3 4 Noroeste 13 Oeste 0 -- -- 14
2020-02-29 04:00:00 10.8 4 Noroeste 14 Oeste 0 -- -- 79
2020-02-29 03:00:00 9.1 4 Oeste 10 Oeste 0 -- -- 97
2020-02-29 02:00:00 9.3 8 Noroeste 13 Oeste 0 -- -- 98
2020-02-29 01:00:00 9.5 10 Noroeste 14 Noroeste 0 -- -- 97
2020-02-29 00:00:00 9.7 11 Noroeste 15 Noroeste 0 -- -- 96
2020-02-28 23:00:00 11.2 10 Noroeste 17 Noroeste 0 -- -- 73
2020-02-28 22:00:00 10.4 15 Oeste 18 Oeste 0 -- -- 88
2020-02-28 21:00:00 12.4 12 Noroeste 21 Oeste 0 -- -- 62
2020-02-28 20:00:00 13.3 14 Oeste 18 Oeste 0 -- -- 54
2020-02-28 19:00:00 14.8 9 Noroeste 18 Oeste 0 -- -- 63
2020-02-28 18:00:00 16.8 7 Noroeste 14 Oeste 0 -- -- 67
2020-02-28 17:00:00 18.2 5 Noroeste 10 Oeste 0 -- -- 64
2020-02-28 16:00:00 18.1 4 Noroeste 10 Noroeste 0 -- -- 66
2020-02-28 15:00:00 18.2 5 Noroeste 13 Noroeste 0 -- -- 64
2020-02-28 14:00:00 17.3 6 Norte 13 Noroeste 0 -- -- 68
2020-02-28 13:00:00 17.1 9 Norte 17 Noroeste 0 -- -- 68
2020-02-28 12:00:00 17.3 6 Norte 13 Norte 0 -- -- 68
2020-02-28 11:00:00 16.5 4 Norte 9 Noroeste 0 -- -- 71
2020-02-28 10:00:00 13.1 6 Noroeste 12 Noroeste 0 -- -- 88
2020-02-28 09:00:00 10.2 7 Oeste 10 Oeste 0 -- -- 99
2020-02-28 08:00:00 9.1 5 Noroeste 14 Oeste 0 -- -- 100
2020-02-28 07:00:00 9.1 9 Noroeste 18 Oeste 0 -- -- 100
2020-02-28 06:00:00 9.4 13 Noroeste 20 Oeste 0 -- -- 99
2020-02-28 05:00:00 9.5 11 Noroeste 18 Noroeste 0 -- -- 99
2020-02-28 04:00:00 9.4 8 Noroeste 18 Oeste 0 -- -- 99
2020-02-28 03:00:00 9.5 12 Oeste 19 Noroeste 0 -- -- 99
2020-02-28 02:00:00 9.5 8 Noroeste 13 Noroeste 0 -- -- 99
2020-02-28 01:00:00 9.6 7 Noroeste 12 Oeste 0 -- -- 98
2020-02-28 00:00:00 9.8 6 Noroeste 13 Noroeste 0 -- -- 98